»·PEaware :: N11MA KSNA-KSNA

N11MA :: KSNA-KSNA

FLIGHT INFORMATION

Flight Status: Arrived
Operator: Privately registered:
United States
More flights under this callsign
Pilot: Mahmoud S. (33689)
Aircraft: CESSNA 172 SKYHAWK
(C172)
More flights by this aircraft type
Origin: KSNA John Wayne-Orange Co
United States
Destination: KSNA John Wayne-Orange Co
United States
More flights between these airports :: More routes between these airports
Route: SLI
File this flight plan on PilotEdge
Remarks: Not native English, Please speak slowly
Altitude:
(Current/Filed)
3,000ft
Speed:
(Current/Filed)
110kts
Departed: 22-Feb-21 12:38 PM
Arrived: 22-Feb-21 01:08 PM
Distance/Time
Traveled:
0nm/0:30
Distance/Time
To Go:
Arrived

Flight Plot

Page will automatically refresh every two minutes.


Map Options




Map Legend


Flown Route
Filed Route
Departure Airport
Arrival Airport
Navaid (VOR, NDB)
Fix

Horizontal Profiles

Position Reports

Time Latitude Longitude Heading Altitude Ground
Speed
22-Feb-21 12:06 33.672844 -117.866625 60 53ft 0kts
22-Feb-21 12:07 33.672844 -117.866625 60 53ft 0kts
22-Feb-21 12:08 33.672844 -117.866625 60 53ft 0kts
22-Feb-21 12:09 33.672844 -117.866625 60 53ft 0kts
22-Feb-21 12:10 33.672844 -117.866625 60 53ft 0kts
22-Feb-21 12:11 33.672844 -117.866625 60 53ft 0kts
22-Feb-21 12:12 33.672844 -117.866625 60 53ft 0kts
22-Feb-21 12:13 33.672844 -117.866625 60 53ft 0kts
22-Feb-21 12:14 33.672844 -117.866625 60 53ft 0kts
22-Feb-21 12:15 33.672844 -117.866625 60 53ft 0kts
22-Feb-21 12:16 33.672844 -117.866625 60 53ft 0kts
22-Feb-21 12:17 33.672844 -117.866625 60 53ft 0kts
22-Feb-21 12:18 33.672844 -117.866625 60 53ft 0kts
22-Feb-21 12:19 33.672844 -117.866625 60 53ft 0kts
22-Feb-21 12:20 33.672844 -117.866625 60 53ft 0kts
22-Feb-21 12:21 33.672844 -117.866625 60 53ft 0kts
22-Feb-21 12:22 33.672844 -117.866625 60 53ft 0kts
22-Feb-21 12:23 33.672844 -117.866625 60 53ft 0kts
22-Feb-21 12:24 33.672844 -117.866625 60 53ft 0kts
22-Feb-21 12:25 33.672844 -117.866625 60 53ft 0kts
22-Feb-21 12:26 33.672844 -117.866625 60 53ft 0kts
22-Feb-21 12:27 33.672844 -117.866625 60 53ft 0kts
22-Feb-21 12:28 33.672844 -117.866625 60 53ft 0kts
22-Feb-21 12:29 33.672844 -117.866625 60 53ft 0kts
22-Feb-21 12:30 33.672844 -117.866625 60 53ft 0kts
22-Feb-21 12:31 33.672844 -117.866625 60 53ft 0kts
22-Feb-21 12:32 33.672863 -117.866608 23 53ft 1kts
22-Feb-21 12:33 33.675225 -117.866400 29 55ft 25kts
22-Feb-21 12:34 33.679903 -117.863567 327 45ft 9kts
22-Feb-21 12:35 33.679976 -117.863657 300 45ft 0kts
22-Feb-21 12:36 33.679562 -117.864541 207 47ft 22kts
22-Feb-21 12:37 33.663986 -117.876829 231 531ft 79kts
22-Feb-21 12:38 33.650489 -117.898842 234 1292ft 85kts
22-Feb-21 12:39 33.635781 -117.920944 229 2068ft 84kts
22-Feb-21 12:40 33.621127 -117.943051 234 2784ft 85kts
22-Feb-21 12:41 33.606624 -117.968458 245 3026ft 98kts
22-Feb-21 12:42 33.608606 -117.995830 266 3312ft 86kts
22-Feb-21 12:43 33.617158 -118.016872 335 3545ft 76kts
22-Feb-21 12:44 33.638230 -118.017362 11 3711ft 80kts
22-Feb-21 12:45 33.664344 -118.010688 13 3533ft 103kts
22-Feb-21 12:46 33.693205 -118.001103 21 3194ft 109kts
22-Feb-21 12:47 33.720204 -117.991700 14 3247ft 99kts
22-Feb-21 12:48 33.747318 -117.983420 14 3218ft 103kts
22-Feb-21 12:49 33.776010 -117.974541 14 3063ft 105kts
22-Feb-21 12:50 33.804421 -117.965622 14 2932ft 109kts
22-Feb-21 12:51 33.830628 -117.953320 39 2932ft 102kts
22-Feb-21 12:52 33.849857 -117.932284 42 2966ft 99kts
22-Feb-21 12:53 33.869211 -117.910467 42 2979ft 101kts
22-Feb-21 12:54 33.889814 -117.887229 42 2979ft 101kts
22-Feb-21 12:55 33.905869 -117.861050 88 2981ft 102kts
22-Feb-21 12:56 33.904504 -117.826803 92 2977ft 102kts
22-Feb-21 12:57 33.902536 -117.792652 92 2979ft 102kts
22-Feb-21 12:58 33.900513 -117.758865 92 3008ft 101kts
22-Feb-21 12:59 33.876954 -117.748379 179 3017ft 104kts
22-Feb-21 13:00 33.849642 -117.758550 210 3022ft 106kts
22-Feb-21 13:01 33.823496 -117.775103 208 3017ft 106kts
22-Feb-21 13:02 33.796615 -117.792255 207 2579ft 114kts
22-Feb-21 13:03 33.768610 -117.810006 207 1970ft 116kts
22-Feb-21 13:04 33.739851 -117.828209 207 1350ft 117kts
22-Feb-21 13:05 33.714508 -117.844258 207 796ft 89kts
22-Feb-21 13:06 33.694425 -117.856977 207 369ft 78kts
22-Feb-21 13:07 33.677302 -117.867854 210 54ft 35kts
22-Feb-21 13:08 33.675964 -117.869788 297 56ft 0kts
22-Feb-21 13:09 33.676625 -117.870518 301 54ft 7kts
22-Feb-21 13:10 33.676635 -117.870538 301 54ft 0kts
22-Feb-21 13:11 33.676635 -117.870538 301 54ft 0kts
22-Feb-21 13:12 33.676635 -117.870538 301 54ft 0kts
22-Feb-21 13:13 33.676635 -117.870538 301 54ft 0kts
22-Feb-21 13:14 33.676635 -117.870538 301 54ft 0kts
22-Feb-21 13:15 33.676635 -117.870538 301 54ft 0kts
22-Feb-21 13:16 33.676635 -117.870538 301 54ft 0kts
22-Feb-21 13:17 33.676635 -117.870538 301 54ft 0kts
22-Feb-21 13:18 33.676635 -117.870538 301 54ft 0kts
22-Feb-21 13:19 33.676635 -117.870538 301 54ft 0kts
22-Feb-21 13:20 33.676680 -117.869858 65 54ft 11kts
22-Feb-21 13:21 33.680389 -117.867591 33 44ft 22kts

Navigation Log

Ident Type
Flight plan parsing failed, navigation log unavailable